createdAt,value
2018-09-12T00:00:48.950Z,15.06
2018-09-12T00:03:17.688Z,15.08
2018-09-12T00:05:46.393Z,15.10
2018-09-12T00:08:15.184Z,15.00
2018-09-12T00:10:43.961Z,14.99
2018-09-12T00:13:12.603Z,15.01
2018-09-12T00:15:41.569Z,15.05
2018-09-12T00:18:10.603Z,15.03
2018-09-12T00:20:39.281Z,15.02
2018-09-12T00:23:08.150Z,14.96
2018-09-12T00:25:37.140Z,14.95
2018-09-12T00:28:06.215Z,14.93
2018-09-12T00:30:35.460Z,14.91
2018-09-12T00:33:04.353Z,14.88
2018-09-12T00:35:33.116Z,14.86
2018-09-12T00:38:02.830Z,14.87
2018-09-12T00:40:31.624Z,14.88
2018-09-12T00:43:00.546Z,14.92
2018-09-12T00:45:29.326Z,14.90
2018-09-12T00:47:58.073Z,14.84
2018-09-12T00:50:27.009Z,14.79
2018-09-12T00:52:55.908Z,14.72
2018-09-12T00:55:24.695Z,14.67
2018-09-12T00:57:53.585Z,14.68
2018-09-12T01:00:22.266Z,14.71
2018-09-12T01:02:50.980Z,14.56
2018-09-12T01:05:19.789Z,14.41
2018-09-12T01:07:49.118Z,14.39
2018-09-12T01:10:17.857Z,14.31
2018-09-12T01:12:47.957Z,14.27
2018-09-12T01:15:17.075Z,14.23
2018-09-12T01:17:46.062Z,14.21
2018-09-12T01:20:15.522Z,14.18
2018-09-12T01:22:44.405Z,14.27
2018-09-12T01:25:13.243Z,14.30
2018-09-12T01:27:41.977Z,14.28
2018-09-12T01:30:15.023Z,14.35
2018-09-12T01:32:43.659Z,14.33
2018-09-12T01:35:12.433Z,14.32
2018-09-12T01:37:41.071Z,14.39
2018-09-12T01:40:09.817Z,14.46
2018-09-12T01:42:38.567Z,14.45
2018-09-12T01:45:07.291Z,14.43
2018-09-12T01:47:36.024Z,14.35
2018-09-12T01:50:05.614Z,14.30
2018-09-12T01:52:34.389Z,14.29
2018-09-12T01:55:03.680Z,14.26
2018-09-12T01:57:32.445Z,14.31
2018-09-12T02:00:01.158Z,14.18
2018-09-12T02:02:29.969Z,14.04
2018-09-12T02:04:58.971Z,14.06
2018-09-12T02:07:27.762Z,14.02
2018-09-12T02:09:56.550Z,13.97
2018-09-12T02:12:25.573Z,14.01
2018-09-12T02:14:54.336Z,14.10
2018-09-12T02:17:22.987Z,14.18
2018-09-12T02:19:51.727Z,14.27
2018-09-12T02:22:20.418Z,14.35
2018-09-12T02:24:49.201Z,14.38
2018-09-12T02:27:17.846Z,14.32
2018-09-12T02:33:07.726Z,14.41
2018-09-12T02:35:40.597Z,14.48
2018-09-12T02:38:09.366Z,14.50
2018-09-12T02:40:38.281Z,14.41
2018-09-12T02:43:07.033Z,14.31
2018-09-12T02:45:35.757Z,14.24
2018-09-12T02:48:04.538Z,14.20
2018-09-12T02:50:34.355Z,14.19
2018-09-12T02:53:03.998Z,14.23
2018-09-12T02:55:32.789Z,14.24
2018-09-12T02:58:01.544Z,14.28
2018-09-12T03:00:30.513Z,14.24
2018-09-12T03:02:59.209Z,14.31
2018-09-12T03:05:28.700Z,14.39
2018-09-12T03:07:57.561Z,14.43
2018-09-12T03:10:26.337Z,14.36
2018-09-12T03:12:55.181Z,14.27
2018-09-12T03:15:23.923Z,14.25
2018-09-12T03:17:52.834Z,14.26
2018-09-12T03:20:21.609Z,14.33
2018-09-12T03:22:50.334Z,14.31
2018-09-12T03:25:19.023Z,14.23
2018-09-12T03:27:47.817Z,14.14
2018-09-12T03:30:16.594Z,14.11
2018-09-12T03:32:46.717Z,14.13
2018-09-12T03:35:15.488Z,14.12
2018-09-12T03:37:45.203Z,14.17
2018-09-12T03:40:13.940Z,14.18
2018-09-12T03:42:42.693Z,14.20
2018-09-12T03:45:11.417Z,14.21
2018-09-12T03:47:40.107Z,14.22
2018-09-12T03:50:08.925Z,14.19
2018-09-12T03:52:37.773Z,14.11
2018-09-12T03:55:06.583Z,14.07
2018-09-12T03:57:41.893Z,14.06
2018-09-12T04:00:10.977Z,14.03
2018-09-12T04:02:40.588Z,13.95
2018-09-12T04:05:09.388Z,13.92
2018-09-12T04:07:38.239Z,13.94
2018-09-12T04:10:08.120Z,13.91
2018-09-12T04:12:38.228Z,13.79
2018-09-12T04:15:07.154Z,13.78
2018-09-12T04:17:37.670Z,13.78
2018-09-12T04:20:06.557Z,13.79
2018-09-12T04:22:35.326Z,13.85
2018-09-12T04:25:03.990Z,13.81
2018-09-12T04:27:32.743Z,13.77
2018-09-12T04:30:01.530Z,13.53
2018-09-12T04:32:30.424Z,13.44
2018-09-12T04:35:00.195Z,13.39
2018-09-12T04:37:28.912Z,13.34
2018-09-12T04:39:57.972Z,13.30
2018-09-12T04:42:26.925Z,13.34
2018-09-12T04:44:55.770Z,13.44
2018-09-12T04:47:24.806Z,13.56
2018-09-12T04:49:53.982Z,13.71
2018-09-12T04:52:22.634Z,13.83
2018-09-12T04:54:51.334Z,13.89
2018-09-12T04:57:20.030Z,13.92
2018-09-12T04:59:48.778Z,14.00
2018-09-12T05:02:17.591Z,14.06
2018-09-12T05:04:46.447Z,14.08
2018-09-12T05:07:15.114Z,14.08
2018-09-12T05:09:44.776Z,14.15
2018-09-12T05:12:13.605Z,14.28
2018-09-12T05:14:42.260Z,14.38
2018-09-12T05:17:11.033Z,14.50
2018-09-12T05:19:39.719Z,14.64
2018-09-12T05:22:08.995Z,14.69
2018-09-12T05:24:37.798Z,14.71
2018-09-12T05:27:06.455Z,14.73
2018-09-12T05:29:35.304Z,14.82
2018-09-12T05:32:04.165Z,14.86
2018-09-12T05:34:32.908Z,14.89
2018-09-12T05:37:01.593Z,14.89
2018-09-12T05:39:30.438Z,15.06
2018-09-12T05:41:59.069Z,15.28
2018-09-12T05:44:27.870Z,15.34
2018-09-12T05:46:57.216Z,15.41
2018-09-12T05:49:26.941Z,15.40
2018-09-12T05:51:55.686Z,15.41
2018-09-12T05:54:24.417Z,15.44
2018-09-12T05:56:53.033Z,15.51
2018-09-12T05:59:22.649Z,15.57
2018-09-12T06:01:51.360Z,15.68
2018-09-12T06:04:20.105Z,15.80
2018-09-12T06:06:49.001Z,15.91
2018-09-12T06:09:17.650Z,16.06
2018-09-12T06:11:47.268Z,16.20
2018-09-12T06:14:16.041Z,16.35
2018-09-12T06:16:44.685Z,16.52
2018-09-12T06:19:13.327Z,16.70
2018-09-12T06:21:41.991Z,16.90
2018-09-12T06:24:10.570Z,17.08
2018-09-12T06:26:39.253Z,17.24
2018-09-12T06:29:08.047Z,17.39
2018-09-12T06:31:36.658Z,17.53
2018-09-12T06:34:05.413Z,17.67
2018-09-12T06:36:34.018Z,17.82
2018-09-12T06:39:02.722Z,17.94
2018-09-12T06:41:31.395Z,18.08
2018-09-12T06:44:00.062Z,18.24
2018-09-12T06:46:28.781Z,18.37
2018-09-12T06:48:57.386Z,18.47
2018-09-12T06:51:26.022Z,18.56
2018-09-12T06:53:54.653Z,18.65
2018-09-12T06:56:23.491Z,18.71
2018-09-12T06:58:52.137Z,18.80
2018-09-12T07:01:20.854Z,18.89
2018-09-12T07:03:49.550Z,19.02
2018-09-12T07:06:18.239Z,19.08
2018-09-12T07:08:46.960Z,19.18
2018-09-12T07:11:15.599Z,19.34
2018-09-12T07:13:44.270Z,19.45
2018-09-12T07:16:12.881Z,19.59
2018-09-12T07:18:41.465Z,19.72
2018-09-12T07:21:10.956Z,19.85
2018-09-12T07:23:39.626Z,19.97
2018-09-12T07:26:08.531Z,20.09
2018-09-12T07:28:38.010Z,20.21
2018-09-12T07:31:07.634Z,20.36
2018-09-12T07:33:36.663Z,20.52
2018-09-12T07:36:05.377Z,20.72
2018-09-12T07:38:34.022Z,20.89
2018-09-12T07:41:02.955Z,21.05
2018-09-12T07:43:31.599Z,21.20
2018-09-12T07:46:00.238Z,21.45
2018-09-12T07:48:28.924Z,21.59
2018-09-12T07:50:57.507Z,21.74
2018-09-12T07:53:26.157Z,21.83
2018-09-12T07:55:54.892Z,22.02
2018-09-12T07:58:23.622Z,22.21
2018-09-12T08:00:52.346Z,22.31
2018-09-12T08:03:21.019Z,22.39
2018-09-12T08:05:49.710Z,22.50
2018-09-12T08:08:18.325Z,22.60
2018-09-12T08:10:47.022Z,22.70
2018-09-12T08:13:15.647Z,22.79
2018-09-12T08:15:44.372Z,22.86
2018-09-12T08:18:13.022Z,23.00
2018-09-12T08:20:41.783Z,23.12
2018-09-12T08:23:11.672Z,23.20
2018-09-12T08:25:40.401Z,23.32
2018-09-12T08:28:09.141Z,23.46
2018-09-12T08:30:38.046Z,23.61
2018-09-12T08:33:06.475Z,23.67
2018-09-12T08:35:35.506Z,23.78
2018-09-12T08:38:05.163Z,23.85
2018-09-12T08:40:33.915Z,23.98
2018-09-12T08:43:03.017Z,24.10
2018-09-12T08:45:31.735Z,24.16
2018-09-12T08:48:00.591Z,24.26
2018-09-12T08:50:29.226Z,24.34
2018-09-12T08:52:57.935Z,24.44
2018-09-12T08:55:26.815Z,24.50
2018-09-12T08:57:55.761Z,24.59
2018-09-12T09:00:28.696Z,24.77
2018-09-12T09:02:57.297Z,24.87
2018-09-12T09:05:26.025Z,24.95
2018-09-12T09:07:54.749Z,25.06
2018-09-12T09:10:23.456Z,25.19
2018-09-12T09:12:52.131Z,25.33
2018-09-12T09:15:21.755Z,25.45
2018-09-12T09:17:50.375Z,25.53
2018-09-12T09:20:19.121Z,25.60
2018-09-12T09:22:48.033Z,25.63
2018-09-12T09:25:16.763Z,25.66
2018-09-12T09:27:45.841Z,25.79
2018-09-12T09:30:14.888Z,25.87
2018-09-12T09:32:44.905Z,25.93
2018-09-12T09:35:13.451Z,26.04
2018-09-12T09:37:42.259Z,26.15
2018-09-12T09:40:11.948Z,26.22
2018-09-12T09:42:40.757Z,26.30
2018-09-12T09:45:09.533Z,26.38
2018-09-12T09:47:38.311Z,26.49
2018-09-12T09:50:07.030Z,26.53
2018-09-12T09:52:35.788Z,26.69
2018-09-12T09:55:04.513Z,26.81
2018-09-12T09:57:34.345Z,26.86
2018-09-12T10:00:02.979Z,26.97
2018-09-12T10:02:36.809Z,27.02
2018-09-12T10:05:10.802Z,27.16
2018-09-12T10:07:44.707Z,27.08
2018-09-12T10:10:13.384Z,27.14
2018-09-12T10:12:42.198Z,27.31
2018-09-12T10:15:11.034Z,27.43
2018-09-12T10:17:39.629Z,27.52
2018-09-12T10:20:08.696Z,27.66
2018-09-12T10:22:37.334Z,27.77
2018-09-12T10:25:06.069Z,27.74
2018-09-12T10:27:34.925Z,27.79
2018-09-12T10:30:03.670Z,27.86
2018-09-12T10:32:32.138Z,28.04
2018-09-12T10:35:00.694Z,28.11
2018-09-12T10:37:29.495Z,28.27
2018-09-12T10:39:58.037Z,28.39
2018-09-12T10:42:27.729Z,28.42
2018-09-12T10:44:56.248Z,28.44
2018-09-12T10:47:25.796Z,28.52
2018-09-12T10:49:54.451Z,28.61
2018-09-12T10:52:23.267Z,28.76
2018-09-12T10:54:51.850Z,28.93
2018-09-12T10:57:20.520Z,29.06
2018-09-12T10:59:49.095Z,29.23
2018-09-12T11:02:18.214Z,29.34
2018-09-12T11:04:46.782Z,29.36
2018-09-12T11:07:15.385Z,29.27
2018-09-12T11:09:44.570Z,29.28
2018-09-12T11:12:12.997Z,29.60
2018-09-12T11:14:41.614Z,29.71
2018-09-12T11:17:10.221Z,29.95
2018-09-12T11:19:38.727Z,30.40
2018-09-12T11:22:07.265Z,30.70
2018-09-12T11:24:35.826Z,31.11
2018-09-12T11:27:04.394Z,31.73
2018-09-12T11:29:33.027Z,32.40
2018-09-12T11:32:01.678Z,32.71
2018-09-12T11:34:30.254Z,32.77
2018-09-12T11:36:58.852Z,33.15
2018-09-12T11:39:28.254Z,33.44
2018-09-12T11:41:57.631Z,33.14
2018-09-12T11:44:26.125Z,33.20
2018-09-12T11:46:54.545Z,33.27
2018-09-12T11:49:23.174Z,33.70
2018-09-12T11:51:51.700Z,33.96
2018-09-12T11:54:20.347Z,34.21
2018-09-12T11:56:49.712Z,34.26
2018-09-12T11:59:18.321Z,33.92
2018-09-12T12:01:46.972Z,33.77
2018-09-12T12:04:16.693Z,33.81
2018-09-12T12:06:45.230Z,34.20
2018-09-12T12:09:13.876Z,34.63
2018-09-12T12:11:42.506Z,35.09
2018-09-12T12:14:11.063Z,35.25
2018-09-12T12:16:40.312Z,35.39
2018-09-12T12:19:09.029Z,35.56
2018-09-12T12:21:37.567Z,35.53
2018-09-12T12:24:06.476Z,35.18
2018-09-12T12:26:35.616Z,34.81
2018-09-12T12:29:04.471Z,34.89
2018-09-12T12:31:33.173Z,34.73
2018-09-12T12:34:01.682Z,34.35
2018-09-12T12:36:31.076Z,34.30
2018-09-12T12:38:59.568Z,34.24
2018-09-12T12:41:28.240Z,34.33
2018-09-12T12:43:57.162Z,34.56
2018-09-12T12:46:25.765Z,34.41
2018-09-12T12:48:54.334Z,34.23
2018-09-12T12:51:24.993Z,34.46
2018-09-12T12:53:53.667Z,34.74
2018-09-12T12:56:23.041Z,34.87
2018-09-12T12:58:51.562Z,34.89
2018-09-12T13:01:20.284Z,35.10
2018-09-12T13:03:48.937Z,34.85
2018-09-12T13:06:17.474Z,34.68
2018-09-12T13:08:46.031Z,34.89
2018-09-12T13:11:14.698Z,35.29
2018-09-12T13:13:43.158Z,35.64
2018-09-12T13:16:11.582Z,36.20
2018-09-12T13:18:40.278Z,36.14
2018-09-12T13:21:08.869Z,35.64
2018-09-12T13:23:38.064Z,35.38
2018-09-12T13:26:07.387Z,36.05
2018-09-12T13:28:36.675Z,36.49
2018-09-12T13:31:05.270Z,36.63
2018-09-12T13:33:33.998Z,36.81
2018-09-12T13:36:02.462Z,37.56
2018-09-12T13:38:32.919Z,38.15
2018-09-12T13:41:02.450Z,37.90
2018-09-12T13:43:30.966Z,37.58
2018-09-12T13:45:59.543Z,36.99
2018-09-12T13:48:28.281Z,36.79
2018-09-12T13:50:59.077Z,36.21
2018-09-12T13:53:27.649Z,36.88
2018-09-12T13:55:56.157Z,36.57
2018-09-12T13:58:26.089Z,36.35
2018-09-12T14:00:54.666Z,36.13
2018-09-12T14:03:23.301Z,36.80
2018-09-12T14:05:51.841Z,37.23
2018-09-12T14:08:20.684Z,37.44
2018-09-12T14:10:49.160Z,36.80
2018-09-12T14:13:17.626Z,36.33
2018-09-12T14:15:46.226Z,36.08
2018-09-12T14:18:14.718Z,35.83
2018-09-12T14:20:43.374Z,35.67
2018-09-12T14:23:12.176Z,35.67
2018-09-12T14:25:40.841Z,35.97
2018-09-12T14:28:09.445Z,36.61
2018-09-12T14:30:38.189Z,37.41
2018-09-12T14:33:06.705Z,37.75
2018-09-12T14:35:35.289Z,37.57
2018-09-12T14:38:05.839Z,36.94
2018-09-12T14:40:34.429Z,36.82
2018-09-12T14:43:03.018Z,36.63
2018-09-12T14:45:31.861Z,36.68
2018-09-12T14:48:01.737Z,36.37
2018-09-12T14:50:30.348Z,36.03
2018-09-12T14:52:59.155Z,35.97
2018-09-12T14:55:27.658Z,36.31
2018-09-12T14:57:56.380Z,36.51
2018-09-12T15:00:26.786Z,36.38
2018-09-12T15:02:57.902Z,36.02
2018-09-12T15:05:26.897Z,35.74
2018-09-12T15:07:56.105Z,35.07
2018-09-12T15:10:24.974Z,34.49
2018-09-12T15:12:53.639Z,34.18
2018-09-12T15:15:22.169Z,34.02
2018-09-12T15:17:50.709Z,33.89
2018-09-12T15:20:19.289Z,33.78
2018-09-12T15:22:47.905Z,33.58
2018-09-12T15:25:16.714Z,33.49
2018-09-12T15:27:45.361Z,33.75
2018-09-12T15:30:14.977Z,33.95
2018-09-12T15:32:43.562Z,33.75
2018-09-12T15:35:12.186Z,33.62
2018-09-12T15:37:41.164Z,33.95
2018-09-12T15:40:10.419Z,33.99
2018-09-12T15:42:39.857Z,33.92
2018-09-12T15:45:08.487Z,33.92
2018-09-12T15:47:37.068Z,33.90
2018-09-12T15:50:06.053Z,33.61
2018-09-12T15:52:34.728Z,33.59
2018-09-12T15:55:03.407Z,33.68
2018-09-12T15:57:31.874Z,33.53
2018-09-12T16:00:01.404Z,33.43
2018-09-12T16:02:29.993Z,33.17
2018-09-12T16:04:58.687Z,33.06
2018-09-12T16:07:27.442Z,32.79
2018-09-12T16:09:56.022Z,32.43
2018-09-12T16:12:24.655Z,31.92
2018-09-12T16:14:53.240Z,31.72
2018-09-12T16:17:21.833Z,31.59
2018-09-12T16:19:50.513Z,31.32
2018-09-12T16:22:18.974Z,31.03
2018-09-12T16:24:47.493Z,30.73
2018-09-12T16:27:17.225Z,30.50
2018-09-12T16:29:45.913Z,30.30
2018-09-12T16:32:16.333Z,29.99
2018-09-12T16:34:44.839Z,29.68
2018-09-12T16:37:14.034Z,29.46
2018-09-12T16:39:42.670Z,29.18
2018-09-12T16:42:17.136Z,28.97
2018-09-12T16:44:45.839Z,28.78
2018-09-12T16:47:18.023Z,28.56
2018-09-12T16:49:59.157Z,28.40
2018-09-12T16:52:51.760Z,28.20
2018-09-12T16:55:21.108Z,27.98
2018-09-12T16:57:49.931Z,27.81
2018-09-12T17:00:18.618Z,27.61
2018-09-12T17:02:47.624Z,27.43
2018-09-12T17:05:16.131Z,27.25
2018-09-12T17:07:44.782Z,27.07
2018-09-12T17:10:13.810Z,26.92
2018-09-12T17:12:42.374Z,26.76
2018-09-12T17:15:11.202Z,26.66
2018-09-12T17:17:39.731Z,26.59
2018-09-12T17:20:08.390Z,26.44
2018-09-12T17:22:36.949Z,26.37
2018-09-12T17:25:05.547Z,26.30
2018-09-12T17:27:34.095Z,26.20
2018-09-12T17:30:02.927Z,26.08
2018-09-12T17:32:31.515Z,25.98
2018-09-12T17:35:00.174Z,25.87
2018-09-12T17:37:28.760Z,25.77
2018-09-12T17:39:58.218Z,25.64
2018-09-12T17:42:26.844Z,25.46
2018-09-12T17:44:55.482Z,25.27
2018-09-12T17:47:24.204Z,25.07
2018-09-12T17:49:52.681Z,24.89
2018-09-12T17:52:21.157Z,24.76
2018-09-12T17:54:49.667Z,24.52
2018-09-12T17:57:18.305Z,24.41
2018-09-12T17:59:47.109Z,24.23
2018-09-12T18:02:15.897Z,24.18
2018-09-12T18:04:44.543Z,24.08
2018-09-12T18:07:13.119Z,23.98
2018-09-12T18:09:43.544Z,23.86
2018-09-12T18:12:12.010Z,23.76
2018-09-12T18:14:40.757Z,23.69
2018-09-12T18:17:09.488Z,23.70
2018-09-12T18:19:38.157Z,23.71
2018-09-12T18:22:06.870Z,23.69
2018-09-12T18:24:35.459Z,23.62
2018-09-12T18:27:04.256Z,23.49
2018-09-12T18:29:32.905Z,23.38
2018-09-12T18:32:01.485Z,23.23
2018-09-12T18:34:30.047Z,23.12
2018-09-12T18:36:58.499Z,22.93
2018-09-12T18:39:27.259Z,22.76
2018-09-12T18:41:55.993Z,22.56
2018-09-12T18:44:24.596Z,22.59
2018-09-12T18:46:53.310Z,22.59
2018-09-12T18:49:22.017Z,22.48
2018-09-12T18:51:50.513Z,22.14
2018-09-12T18:54:19.079Z,22.07
2018-09-12T18:56:47.774Z,22.00
2018-09-12T18:59:16.365Z,21.88
2018-09-12T19:01:44.909Z,21.80
2018-09-12T19:04:13.497Z,21.46
2018-09-12T19:06:42.208Z,21.15
2018-09-12T19:09:12.245Z,21.10
2018-09-12T19:11:40.995Z,21.01
2018-09-12T19:14:09.501Z,20.91
2018-09-12T19:16:38.356Z,20.84
2018-09-12T19:19:07.274Z,20.77
2018-09-12T19:21:35.822Z,20.77
2018-09-12T19:24:04.433Z,20.71
2018-09-12T19:26:32.971Z,20.51
2018-09-12T19:29:02.389Z,20.38
2018-09-12T19:31:31.126Z,20.39
2018-09-12T19:34:00.002Z,20.33
2018-09-12T19:36:29.552Z,20.31
2018-09-12T19:38:58.081Z,20.24
2018-09-12T19:41:27.859Z,20.17
2018-09-12T19:43:56.849Z,20.12
2018-09-12T19:46:26.186Z,20.03
2018-09-12T19:48:55.579Z,19.97
2018-09-12T19:51:24.656Z,19.96
2018-09-12T19:53:53.385Z,20.00
2018-09-12T19:56:21.920Z,20.00
2018-09-12T19:58:50.635Z,19.85
2018-09-12T20:01:19.198Z,19.69
2018-09-12T20:03:47.862Z,19.54
2018-09-12T20:06:16.605Z,19.46
2018-09-12T20:08:45.359Z,19.36
2018-09-12T20:11:14.089Z,19.13
2018-09-12T20:13:42.800Z,18.97
2018-09-12T20:16:11.595Z,18.85
2018-09-12T20:18:40.163Z,18.65
2018-09-12T20:21:09.940Z,18.55
2018-09-12T20:23:38.745Z,18.52
2018-09-12T20:26:07.277Z,18.44
2018-09-12T20:28:39.874Z,18.32
2018-09-12T20:31:08.881Z,18.31
2018-09-12T20:33:37.591Z,18.28
2018-09-12T20:36:07.061Z,18.25
2018-09-12T20:38:36.359Z,18.17
2018-09-12T20:41:05.115Z,18.05
2018-09-12T20:43:33.857Z,17.92
2018-09-12T20:46:02.851Z,17.76
2018-09-12T20:48:31.906Z,17.76
2018-09-12T20:51:00.540Z,18.12
2018-09-12T20:53:29.088Z,18.16
2018-09-12T20:55:57.553Z,18.41
2018-09-12T20:58:26.027Z,18.49
2018-09-12T21:00:54.750Z,18.42
2018-09-12T21:03:23.258Z,18.37
2018-09-12T21:05:51.941Z,18.41
2018-09-12T21:08:20.581Z,18.45
2018-09-12T21:10:49.196Z,18.59
2018-09-12T21:13:17.888Z,18.66
2018-09-12T21:15:46.406Z,18.67
2018-09-12T21:18:15.423Z,18.67
2018-09-12T21:20:44.197Z,18.74
2018-09-12T21:23:12.785Z,18.86
2018-09-12T21:25:41.433Z,18.94
2018-09-12T21:28:09.956Z,19.00
2018-09-12T21:30:38.646Z,19.04
2018-09-12T21:33:07.288Z,19.09
2018-09-12T21:35:35.858Z,19.07
2018-09-12T21:38:04.683Z,19.06
2018-09-12T21:40:33.405Z,19.07
2018-09-12T21:43:02.169Z,19.09
2018-09-12T21:45:30.779Z,19.10
2018-09-12T21:47:59.393Z,19.09
2018-09-12T21:50:27.953Z,19.14
2018-09-12T21:52:56.541Z,19.17
2018-09-12T21:55:25.129Z,19.17
2018-09-12T21:57:53.972Z,19.24
2018-09-12T22:00:23.129Z,19.27
2018-09-12T22:02:51.832Z,19.30
2018-09-12T22:05:20.411Z,19.27
2018-09-12T22:07:49.176Z,19.24
2018-09-12T22:10:17.798Z,19.22
2018-09-12T22:12:46.433Z,19.22
2018-09-12T22:15:14.917Z,19.20
2018-09-12T22:17:44.664Z,19.17
2018-09-12T22:20:13.393Z,19.17
2018-09-12T22:22:42.154Z,19.13
2018-09-12T22:25:10.653Z,19.10
2018-09-12T22:27:39.239Z,19.06
2018-09-12T22:30:08.523Z,19.04
2018-09-12T22:32:37.046Z,18.99
2018-09-12T22:35:06.749Z,18.94
2018-09-12T22:37:35.334Z,18.91
2018-09-12T22:40:04.021Z,18.87
2018-09-12T22:42:32.772Z,18.84
2018-09-12T22:45:01.468Z,18.79
2018-09-12T22:47:29.951Z,18.72
2018-09-12T22:49:58.481Z,18.67
2018-09-12T22:52:27.233Z,18.63
2018-09-12T22:54:55.874Z,18.58
2018-09-12T22:57:24.438Z,18.56
2018-09-12T22:59:53.218Z,18.48
2018-09-12T23:02:21.859Z,18.42
2018-09-12T23:04:50.566Z,18.36
2018-09-12T23:07:19.182Z,18.30
2018-09-12T23:09:47.907Z,18.24
2018-09-12T23:12:16.590Z,18.14
2018-09-12T23:14:45.089Z,18.03
2018-09-12T23:17:13.847Z,17.91
2018-09-12T23:19:43.137Z,17.79
2018-09-12T23:22:11.637Z,17.73
2018-09-12T23:24:40.236Z,17.67
2018-09-12T23:27:08.742Z,17.65
2018-09-12T23:29:37.328Z,17.66
2018-09-12T23:32:06.063Z,17.72
2018-09-12T23:34:34.513Z,17.72
2018-09-12T23:37:03.196Z,17.71
2018-09-12T23:39:31.882Z,17.67
2018-09-12T23:42:00.555Z,17.65
2018-09-12T23:44:29.162Z,17.64
2018-09-12T23:46:57.889Z,17.62
2018-09-12T23:49:26.606Z,17.60
2018-09-12T23:51:55.261Z,17.58
2018-09-12T23:54:23.833Z,17.49
2018-09-12T23:56:52.354Z,17.42
2018-09-12T23:59:20.889Z,17.36
